createdAt,value
2024-04-30T00:02:24.571Z,101873.00
2024-04-30T00:04:51.184Z,101871.34
2024-04-30T00:07:17.855Z,101865.09
2024-04-30T00:09:45.520Z,101867.19
2024-04-30T00:12:12.031Z,101868.84
2024-04-30T00:14:38.586Z,101876.16
2024-04-30T00:17:05.054Z,101884.78
2024-04-30T00:19:31.660Z,101875.00
2024-04-30T00:21:58.253Z,101866.44
2024-04-30T00:24:24.784Z,101871.94
2024-04-30T00:26:51.283Z,101872.81
2024-04-30T00:29:17.797Z,101869.31
2024-04-30T00:31:44.351Z,101872.09
2024-04-30T00:34:10.933Z,101877.50
2024-04-30T00:36:38.954Z,101867.75
2024-04-30T00:39:06.219Z,101872.38
2024-04-30T00:41:32.894Z,101869.66
2024-04-30T00:43:59.455Z,101868.63
2024-04-30T00:46:26.181Z,101866.97
2024-04-30T00:48:52.848Z,101868.19
2024-04-30T00:51:19.401Z,101858.25
2024-04-30T00:53:45.943Z,101862.44
2024-04-30T00:56:13.057Z,101855.81
2024-04-30T00:58:39.613Z,101859.38
2024-04-30T01:01:06.708Z,101851.09
2024-04-30T01:03:33.587Z,101857.56
2024-04-30T01:06:00.329Z,101849.63
2024-04-30T01:08:26.848Z,101846.75
2024-04-30T01:10:53.376Z,101843.34
2024-04-30T01:13:20.070Z,101848.75
2024-04-30T01:15:48.111Z,101840.81
2024-04-30T01:18:15.163Z,101860.88
2024-04-30T01:20:41.891Z,101857.13
2024-04-30T01:23:08.395Z,101857.19
2024-04-30T01:25:35.003Z,101850.84
2024-04-30T01:28:01.631Z,101849.88
2024-04-30T01:30:28.138Z,101847.28
2024-04-30T01:32:55.513Z,101845.44
2024-04-30T01:35:22.114Z,101849.19
2024-04-30T01:37:48.609Z,101843.25
2024-04-30T01:40:15.230Z,101854.06
2024-04-30T01:42:41.724Z,101851.34
2024-04-30T01:45:08.339Z,101849.63
2024-04-30T01:47:34.971Z,101846.09
2024-04-30T01:50:01.503Z,101849.94
2024-04-30T01:52:28.104Z,101854.44
2024-04-30T01:54:54.681Z,101852.53
2024-04-30T01:57:21.191Z,101856.03
2024-04-30T01:59:47.711Z,101840.88
2024-04-30T02:02:14.361Z,101834.34
2024-04-30T02:04:46.545Z,101830.63
2024-04-30T02:07:16.596Z,101834.03
2024-04-30T02:09:43.189Z,101838.56
2024-04-30T02:12:09.750Z,101841.56
2024-04-30T02:14:36.305Z,101845.09
2024-04-30T02:17:03.000Z,101836.81
2024-04-30T02:19:29.618Z,101846.56
2024-04-30T02:21:56.251Z,101846.47
2024-04-30T02:24:23.133Z,101846.47
2024-04-30T02:26:49.626Z,101848.22
2024-04-30T02:29:16.115Z,101843.59
2024-04-30T02:32:01.297Z,101843.59
2024-04-30T02:34:28.094Z,101834.72
2024-04-30T02:36:55.788Z,101831.06
2024-04-30T02:39:22.995Z,101843.69
2024-04-30T02:41:50.092Z,101837.41
2024-04-30T02:44:16.694Z,101845.63
2024-04-30T02:46:43.324Z,101840.38
2024-04-30T02:49:10.068Z,101839.44
2024-04-30T02:51:36.725Z,101842.13
2024-04-30T02:54:03.294Z,101843.88
2024-04-30T02:56:29.799Z,101842.81
2024-04-30T02:58:56.336Z,101836.47
2024-04-30T03:01:22.901Z,101835.41
2024-04-30T03:03:49.496Z,101833.69
2024-04-30T03:06:16.062Z,101834.72
2024-04-30T03:08:42.776Z,101828.44
2024-04-30T03:11:09.586Z,101824.00
2024-04-30T03:13:36.372Z,101815.03
2024-04-30T03:16:06.236Z,101809.63
2024-04-30T03:18:32.793Z,101807.78
2024-04-30T03:20:59.341Z,101817.81
2024-04-30T03:23:25.848Z,101812.31
2024-04-30T03:25:52.357Z,101821.38
2024-04-30T03:28:18.934Z,101830.63
2024-04-30T03:30:45.546Z,101822.44
2024-04-30T03:33:12.233Z,101813.59
2024-04-30T03:35:38.839Z,101816.25
2024-04-30T03:38:05.361Z,101824.34
2024-04-30T03:40:32.118Z,101814.50
2024-04-30T03:42:58.760Z,101810.75
2024-04-30T03:45:25.328Z,101809.88
2024-04-30T03:47:51.914Z,101815.44
2024-04-30T03:50:18.447Z,101803.69
2024-04-30T03:52:44.967Z,101803.69
2024-04-30T03:55:11.484Z,101809.09
2024-04-30T03:57:38.089Z,101801.78
2024-04-30T04:00:04.917Z,101814.34
2024-04-30T04:02:31.522Z,101816.16
2024-04-30T04:04:58.175Z,101801.88
2024-04-30T04:07:24.806Z,101804.63
2024-04-30T04:09:51.346Z,101806.72
2024-04-30T04:12:36.391Z,101795.03
2024-04-30T04:15:02.990Z,101791.28
2024-04-30T04:17:29.619Z,101802.34
2024-04-30T04:19:56.595Z,101803.31
2024-04-30T04:22:23.192Z,101807.75
2024-04-30T04:24:49.871Z,101795.22
2024-04-30T04:27:16.397Z,101802.34
2024-04-30T04:29:42.919Z,101799.81
2024-04-30T04:32:09.477Z,101801.66
2024-04-30T04:34:40.682Z,101798.09
2024-04-30T04:37:07.265Z,101793.47
2024-04-30T04:39:33.791Z,101789.13
2024-04-30T04:42:00.414Z,101800.63
2024-04-30T04:44:26.892Z,101799.66
2024-04-30T04:46:53.469Z,101802.44
2024-04-30T04:49:20.122Z,101801.41
2024-04-30T04:51:46.743Z,101795.03
2024-04-30T04:54:13.318Z,101795.03
2024-04-30T04:56:39.893Z,101790.50
2024-04-30T04:59:06.446Z,101782.59
2024-04-30T05:01:33.161Z,101786.94
2024-04-30T05:03:59.883Z,101793.03
2024-04-30T05:06:26.485Z,101799.41
2024-04-30T05:08:53.161Z,101796.69
2024-04-30T05:11:19.767Z,101805.66
2024-04-30T05:13:46.326Z,101797.66
2024-04-30T05:16:12.937Z,101810.19
2024-04-30T05:18:39.509Z,101814.66
2024-04-30T05:21:06.286Z,101810.97
2024-04-30T05:23:32.899Z,101815.59
2024-04-30T05:25:59.507Z,101811.06
2024-04-30T05:28:26.143Z,101808.28
2024-04-30T05:30:53.515Z,101809.16
2024-04-30T05:33:20.146Z,101800.91
2024-04-30T05:35:46.810Z,101807.00
2024-04-30T05:38:13.427Z,101801.59
2024-04-30T05:40:40.079Z,101801.53
2024-04-30T05:43:10.288Z,101799.59
2024-04-30T05:45:36.864Z,101797.88
2024-04-30T05:48:03.756Z,101806.06
2024-04-30T05:50:30.309Z,101805.19
2024-04-30T05:52:56.850Z,101810.50
2024-04-30T05:55:23.720Z,101789.84
2024-04-30T05:57:50.289Z,101783.41
2024-04-30T06:00:16.932Z,101787.16
2024-04-30T06:02:43.530Z,101784.34
2024-04-30T06:05:10.192Z,101784.19
2024-04-30T06:07:36.968Z,101782.19
2024-04-30T06:10:03.806Z,101772.16
2024-04-30T06:12:30.379Z,101778.34
2024-04-30T06:14:56.901Z,101787.22
2024-04-30T06:17:23.987Z,101775.72
2024-04-30T06:19:50.495Z,101766.47
2024-04-30T06:22:17.025Z,101769.88
2024-04-30T06:24:43.586Z,101767.19
2024-04-30T06:27:10.127Z,101760.72
2024-04-30T06:29:38.809Z,101764.28
2024-04-30T06:32:06.509Z,101765.44
2024-04-30T06:34:33.250Z,101759.75
2024-04-30T06:36:59.764Z,101773.19
2024-04-30T06:39:26.565Z,101776.69
2024-04-30T06:41:53.131Z,101780.09
2024-04-30T06:44:21.317Z,101783.50
2024-04-30T06:46:47.861Z,101788.97
2024-04-30T06:49:14.454Z,101786.28
2024-04-30T06:51:41.564Z,101786.38
2024-04-30T06:54:08.377Z,101779.22
2024-04-30T06:56:34.931Z,101769.19
2024-04-30T06:59:01.476Z,101771.81
2024-04-30T07:01:28.086Z,101777.13
2024-04-30T07:03:54.606Z,101764.47
2024-04-30T07:06:21.214Z,101758.97
2024-04-30T07:08:47.756Z,101765.94
2024-04-30T07:11:14.322Z,101758.53
2024-04-30T07:13:41.034Z,101766.56
2024-04-30T07:16:07.725Z,101765.59
2024-04-30T07:18:34.471Z,101777.38
2024-04-30T07:21:01.987Z,101768.19
2024-04-30T07:23:28.537Z,101761.56
2024-04-30T07:25:55.142Z,101745.88
2024-04-30T07:28:21.699Z,101759.91
2024-04-30T07:30:48.265Z,101757.69
2024-04-30T07:33:15.021Z,101756.53
2024-04-30T07:35:41.902Z,101759.75
2024-04-30T07:38:08.434Z,101753.31
2024-04-30T07:40:35.010Z,101754.78
2024-04-30T07:43:01.573Z,101754.22
2024-04-30T07:45:28.055Z,101755.78
2024-04-30T07:47:55.062Z,101755.00
2024-04-30T07:50:21.799Z,101758.19
2024-04-30T07:52:48.365Z,101758.78
2024-04-30T07:55:14.933Z,101762.50
2024-04-30T07:57:41.438Z,101771.97
2024-04-30T08:00:11.410Z,101761.44
2024-04-30T08:02:38.325Z,101760.09
2024-04-30T08:05:05.159Z,101763.38
2024-04-30T08:07:31.735Z,101758.94
2024-04-30T08:09:58.310Z,101754.09
2024-04-30T08:12:24.856Z,101761.34
2024-04-30T08:14:51.376Z,101753.81
2024-04-30T08:17:17.998Z,101751.09
2024-04-30T08:19:49.422Z,101748.56
2024-04-30T08:22:16.060Z,101744.78
2024-04-30T08:24:42.638Z,101740.50
2024-04-30T08:27:09.162Z,101749.91
2024-04-30T08:29:35.666Z,101754.88
2024-04-30T08:32:02.701Z,101753.19
2024-04-30T08:34:29.280Z,101756.25
2024-04-30T08:36:55.827Z,101747.81
2024-04-30T08:39:22.370Z,101735.16
2024-04-30T08:41:49.626Z,101738.13
2024-04-30T08:44:17.595Z,101729.25
2024-04-30T08:46:46.686Z,101735.78
2024-04-30T08:49:20.396Z,101735.59
2024-04-30T08:51:56.868Z,101737.00
2024-04-30T08:54:26.472Z,101731.91
2024-04-30T08:56:53.446Z,101725.72
2024-04-30T08:59:20.085Z,101726.13
2024-04-30T09:01:52.350Z,101723.84
2024-04-30T09:04:19.036Z,101728.75
2024-04-30T09:06:45.638Z,101726.91
2024-04-30T09:09:15.707Z,101729.06
2024-04-30T09:11:43.211Z,101731.69
2024-04-30T09:14:09.984Z,101727.44
2024-04-30T09:16:49.958Z,101727.53
2024-04-30T09:19:27.069Z,101731.44
2024-04-30T09:22:04.523Z,101729.75
2024-04-30T09:24:31.450Z,101728.06
2024-04-30T09:26:58.133Z,101726.97
2024-04-30T09:29:34.888Z,101728.53
2024-04-30T09:32:01.437Z,101712.09
2024-04-30T09:34:41.002Z,101706.09
2024-04-30T09:37:18.236Z,101704.66
2024-04-30T09:39:47.601Z,101710.75
2024-04-30T09:42:15.840Z,101707.47
2024-04-30T09:44:43.163Z,101719.06
2024-04-30T09:47:10.434Z,101717.84
2024-04-30T09:49:38.367Z,101711.06
2024-04-30T09:52:07.416Z,101707.44
2024-04-30T09:54:37.575Z,101695.41
2024-04-30T09:57:07.499Z,101693.75
2024-04-30T09:59:34.106Z,101697.38
2024-04-30T10:02:07.376Z,101681.94
2024-04-30T10:04:35.904Z,101685.91
2024-04-30T10:07:04.433Z,101683.19
2024-04-30T10:09:31.439Z,101688.25
2024-04-30T10:11:57.984Z,101687.25
2024-04-30T10:14:33.898Z,101685.53
2024-04-30T10:17:01.087Z,101675.47
2024-04-30T10:19:28.761Z,101674.09
2024-04-30T10:21:55.500Z,101680.66
2024-04-30T10:24:24.292Z,101678.03
2024-04-30T10:26:51.820Z,101669.88
2024-04-30T10:29:19.140Z,101662.13
2024-04-30T10:31:48.605Z,101664.47
2024-04-30T10:34:15.513Z,101665.78
2024-04-30T10:36:46.948Z,101661.03
2024-04-30T10:39:23.636Z,101664.88
2024-04-30T10:41:50.319Z,101654.09
2024-04-30T10:44:17.305Z,101647.38
2024-04-30T10:46:44.490Z,101651.63
2024-04-30T10:49:13.285Z,101635.69
2024-04-30T10:51:39.976Z,101645.28
2024-04-30T10:54:06.778Z,101629.91
2024-04-30T10:56:33.446Z,101627.75
2024-04-30T10:59:01.293Z,101628.03
2024-04-30T11:01:33.339Z,101620.97
2024-04-30T11:04:11.529Z,101618.25
2024-04-30T11:06:42.268Z,101617.56
2024-04-30T11:09:11.317Z,101621.31
2024-04-30T11:11:50.636Z,101613.28
2024-04-30T11:14:19.018Z,101618.00
2024-04-30T11:16:48.656Z,101609.34
2024-04-30T11:19:15.979Z,101609.38
2024-04-30T11:21:43.005Z,101600.69
2024-04-30T11:24:12.422Z,101597.69
2024-04-30T11:26:39.357Z,101599.81
2024-04-30T11:29:22.592Z,101606.13
2024-04-30T11:31:52.818Z,101602.22
2024-04-30T11:34:19.458Z,101610.88
2024-04-30T11:36:47.366Z,101598.97
2024-04-30T11:39:14.385Z,101591.16
2024-04-30T11:41:43.683Z,101586.81
2024-04-30T11:44:15.116Z,101585.31
2024-04-30T11:46:41.750Z,101594.97
2024-04-30T11:49:08.371Z,101599.13
2024-04-30T11:51:34.848Z,101592.13
2024-04-30T11:54:01.408Z,101574.59
2024-04-30T11:56:30.810Z,101579.75
2024-04-30T11:58:57.499Z,101569.94
2024-04-30T12:01:24.191Z,101559.25
2024-04-30T12:03:51.035Z,101560.94
2024-04-30T12:06:17.695Z,101551.19
2024-04-30T12:08:44.195Z,101552.16
2024-04-30T12:11:10.758Z,101544.66
2024-04-30T12:13:40.827Z,101536.44
2024-04-30T12:16:07.664Z,101519.78
2024-04-30T12:18:35.044Z,101515.34
2024-04-30T12:21:01.811Z,101523.09
2024-04-30T12:23:28.464Z,101524.75
2024-04-30T12:25:55.634Z,101517.16
2024-04-30T12:28:22.222Z,101525.09
2024-04-30T12:30:48.835Z,101517.09
2024-04-30T12:33:16.995Z,101517.44
2024-04-30T12:35:46.333Z,101507.13
2024-04-30T12:38:14.528Z,101515.59
2024-04-30T12:40:42.214Z,101514.34
2024-04-30T12:43:08.933Z,101506.19
2024-04-30T12:45:35.470Z,101492.16
2024-04-30T12:48:02.266Z,101489.31
2024-04-30T12:50:28.902Z,101498.19
2024-04-30T12:52:55.700Z,101491.75
2024-04-30T12:55:22.286Z,101490.91
2024-04-30T12:57:48.923Z,101482.31
2024-04-30T13:00:15.954Z,101484.84
2024-04-30T13:02:42.582Z,101480.31
2024-04-30T13:05:09.249Z,101477.34
2024-04-30T13:07:35.920Z,101468.72
2024-04-30T13:10:02.593Z,101469.78
2024-04-30T13:12:29.266Z,101455.91
2024-04-30T13:14:55.824Z,101451.94
2024-04-30T13:17:25.147Z,101446.16
2024-04-30T13:19:51.844Z,101441.63
2024-04-30T13:22:18.596Z,101445.22
2024-04-30T13:24:45.133Z,101442.75
2024-04-30T13:27:13.771Z,101449.38
2024-04-30T13:29:42.870Z,101448.97
2024-04-30T13:32:09.442Z,101443.59
2024-04-30T13:34:36.749Z,101441.84
2024-04-30T13:37:03.519Z,101434.41
2024-04-30T13:39:30.091Z,101429.19
2024-04-30T13:41:57.767Z,101431.28
2024-04-30T13:44:24.356Z,101414.31
2024-04-30T13:46:50.882Z,101411.28
2024-04-30T13:49:17.380Z,101408.94
2024-04-30T13:51:44.009Z,101416.88
2024-04-30T13:54:10.523Z,101414.66
2024-04-30T13:56:37.124Z,101425.44
2024-04-30T13:59:07.190Z,101427.22
2024-04-30T14:01:35.637Z,101419.84
2024-04-30T14:04:02.394Z,101407.19
2024-04-30T14:06:29.242Z,101412.38
2024-04-30T14:08:55.853Z,101415.81
2024-04-30T14:11:22.414Z,101411.72
2024-04-30T14:13:48.971Z,101412.94
2024-04-30T14:16:15.881Z,101400.19
2024-04-30T14:18:42.806Z,101399.88
2024-04-30T14:21:11.706Z,101396.19
2024-04-30T14:23:38.287Z,101384.38
2024-04-30T14:26:07.770Z,101393.44
2024-04-30T14:28:35.803Z,101393.22
2024-04-30T14:31:02.434Z,101390.88
2024-04-30T14:33:29.108Z,101380.66
2024-04-30T14:36:14.307Z,101391.81
2024-04-30T14:38:40.798Z,101390.50
2024-04-30T14:41:07.989Z,101396.88
2024-04-30T14:43:35.919Z,101391.13
2024-04-30T14:46:02.460Z,101385.47
2024-04-30T14:48:29.039Z,101385.31
2024-04-30T14:50:55.914Z,101377.59
2024-04-30T14:53:22.734Z,101384.06
2024-04-30T14:55:49.578Z,101376.22
2024-04-30T14:58:16.403Z,101373.31
2024-04-30T15:00:43.013Z,101365.03
2024-04-30T15:03:09.702Z,101371.91
2024-04-30T15:05:36.338Z,101363.47
2024-04-30T15:08:03.200Z,101357.59
2024-04-30T15:10:31.351Z,101355.78
2024-04-30T15:12:57.931Z,101362.31
2024-04-30T15:15:24.599Z,101356.31
2024-04-30T15:17:51.316Z,101361.97
2024-04-30T15:20:17.874Z,101357.78
2024-04-30T15:22:44.475Z,101357.31
2024-04-30T15:25:11.084Z,101348.13
2024-04-30T15:27:37.603Z,101349.94
2024-04-30T15:30:05.079Z,101354.91
2024-04-30T15:32:31.795Z,101344.25
2024-04-30T15:34:59.053Z,101352.34
2024-04-30T15:37:29.252Z,101348.06
2024-04-30T15:39:55.801Z,101338.22
2024-04-30T15:42:22.362Z,101341.13
2024-04-30T15:44:48.936Z,101338.78
2024-04-30T15:47:15.518Z,101345.50
2024-04-30T15:49:42.100Z,101331.44
2024-04-30T15:52:09.037Z,101340.44
2024-04-30T15:54:35.621Z,101331.75
2024-04-30T15:57:03.695Z,101327.63
2024-04-30T15:59:33.268Z,101332.03
2024-04-30T16:01:59.869Z,101322.81
2024-04-30T16:04:26.961Z,101326.97
2024-04-30T16:06:53.766Z,101336.31
2024-04-30T16:09:20.406Z,101335.66
2024-04-30T16:11:47.162Z,101333.75
2024-04-30T16:14:13.816Z,101329.81
2024-04-30T16:16:41.178Z,101324.13
2024-04-30T16:19:11.845Z,101333.09
2024-04-30T16:21:38.469Z,101326.22
2024-04-30T16:24:07.205Z,101325.72
2024-04-30T16:26:33.729Z,101322.25
2024-04-30T16:29:00.306Z,101319.88
2024-04-30T16:31:26.842Z,101313.34
2024-04-30T16:33:53.436Z,101319.84
2024-04-30T16:36:22.885Z,101301.31
2024-04-30T16:38:50.643Z,101309.09
2024-04-30T16:41:17.437Z,101302.38
2024-04-30T16:43:44.008Z,101296.88
2024-04-30T16:46:10.575Z,101300.66
2024-04-30T16:48:37.552Z,101292.03
2024-04-30T16:51:12.683Z,101303.75
2024-04-30T16:53:39.422Z,101294.97
2024-04-30T16:56:06.944Z,101294.47
2024-04-30T16:58:33.511Z,101284.13
2024-04-30T17:01:00.358Z,101282.25
2024-04-30T17:03:27.003Z,101277.25
2024-04-30T17:05:53.622Z,101280.88
2024-04-30T17:08:20.642Z,101270.06
2024-04-30T17:10:47.228Z,101273.81
2024-04-30T17:13:13.945Z,101265.41
2024-04-30T17:15:41.655Z,101261.25
2024-04-30T17:18:08.261Z,101267.28
2024-04-30T17:20:35.129Z,101263.66
2024-04-30T17:23:02.405Z,101270.53
2024-04-30T17:25:28.891Z,101266.19
2024-04-30T17:27:55.439Z,101263.22
2024-04-30T17:30:21.989Z,101268.38
2024-04-30T17:32:48.684Z,101264.06
2024-04-30T17:35:15.199Z,101264.75
2024-04-30T17:37:41.689Z,101259.53
2024-04-30T17:40:09.011Z,101261.25
2024-04-30T17:42:37.576Z,101262.41
2024-04-30T17:45:04.687Z,101262.06
2024-04-30T17:47:31.294Z,101254.72
2024-04-30T17:49:57.922Z,101262.72
2024-04-30T17:52:24.457Z,101265.06
2024-04-30T17:54:51.005Z,101266.88
2024-04-30T17:57:17.565Z,101257.63
2024-04-30T17:59:44.143Z,101267.72
2024-04-30T18:02:10.677Z,101263.19
2024-04-30T18:04:37.255Z,101267.94
2024-04-30T18:07:04.120Z,101263.47
2024-04-30T18:09:30.782Z,101272.19
2024-04-30T18:14:24.236Z,101273.84
2024-04-30T18:16:50.905Z,101270.34
2024-04-30T18:19:17.537Z,101272.22
2024-04-30T18:21:44.521Z,101271.59
2024-04-30T18:24:11.330Z,101267.34
2024-04-30T18:26:41.556Z,101272.28
2024-04-30T18:29:08.536Z,101269.16
2024-04-30T18:31:35.337Z,101264.94
2024-04-30T18:34:02.383Z,101268.38
2024-04-30T18:36:29.048Z,101271.50
2024-04-30T18:38:55.626Z,101274.63
2024-04-30T18:41:28.307Z,101269.78
2024-04-30T18:43:58.307Z,101274.28
2024-04-30T18:46:24.935Z,101274.19
2024-04-30T18:48:51.809Z,101271.16
2024-04-30T18:51:19.004Z,101275.66
2024-04-30T18:53:45.656Z,101269.78
2024-04-30T18:56:17.754Z,101270.66
2024-04-30T18:58:46.011Z,101268.34
2024-04-30T19:01:12.987Z,101261.47
2024-04-30T19:03:39.838Z,101263.81
2024-04-30T19:06:10.839Z,101268.69
2024-04-30T19:08:37.789Z,101273.91
2024-04-30T19:11:05.479Z,101267.59
2024-04-30T19:13:32.965Z,101269.19
2024-04-30T19:16:03.773Z,101273.47
2024-04-30T19:18:31.113Z,101270.72
2024-04-30T19:20:58.058Z,101267.56
2024-04-30T19:23:34.056Z,101270.53
2024-04-30T19:26:01.704Z,101270.53
2024-04-30T19:28:28.470Z,101276.41
2024-04-30T19:30:55.074Z,101282.28
2024-04-30T19:33:21.899Z,101276.66
2024-04-30T19:35:48.535Z,101283.66
2024-04-30T19:38:15.744Z,101281.94
2024-04-30T19:40:43.690Z,101280.19
2024-04-30T19:43:13.063Z,101276.03
2024-04-30T19:45:40.734Z,101276.78
2024-04-30T19:48:07.792Z,101281.22
2024-04-30T19:50:34.425Z,101290.66
2024-04-30T19:53:00.940Z,101280.03
2024-04-30T19:55:27.432Z,101284.03
2024-04-30T19:57:54.184Z,101282.09
2024-04-30T20:00:20.812Z,101281.34
2024-04-30T20:02:47.498Z,101278.75
2024-04-30T20:05:15.854Z,101282.59
2024-04-30T20:07:42.683Z,101282.75
2024-04-30T20:10:09.460Z,101291.97
2024-04-30T20:12:36.432Z,101286.88
2024-04-30T20:15:03.189Z,101296.75
2024-04-30T20:17:29.720Z,101288.59
2024-04-30T20:19:56.284Z,101293.72
2024-04-30T20:22:22.796Z,101291.50
2024-04-30T20:24:49.380Z,101289.16
2024-04-30T20:27:15.996Z,101290.66
2024-04-30T20:29:42.524Z,101290.59
2024-04-30T20:32:09.013Z,101284.66
2024-04-30T20:34:35.525Z,101291.25
2024-04-30T20:37:02.120Z,101287.03
2024-04-30T20:39:28.732Z,101292.50
2024-04-30T20:41:55.513Z,101282.53
2024-04-30T20:44:22.023Z,101289.25
2024-04-30T20:46:48.548Z,101282.31
2024-04-30T20:49:15.177Z,101277.75
2024-04-30T20:51:43.738Z,101280.00
2024-04-30T20:54:11.138Z,101278.13
2024-04-30T20:56:40.960Z,101277.88
2024-04-30T20:59:10.021Z,101274.16
2024-04-30T21:01:36.577Z,101281.13
2024-04-30T21:04:03.474Z,101277.00
2024-04-30T21:06:30.146Z,101281.97
2024-04-30T21:08:56.687Z,101275.19
2024-04-30T21:11:23.339Z,101272.94
2024-04-30T21:13:49.962Z,101279.38
2024-04-30T21:16:17.673Z,101276.78
2024-04-30T21:18:45.340Z,101273.94
2024-04-30T21:21:12.091Z,101273.59
2024-04-30T21:23:42.942Z,101273.09
2024-04-30T21:26:10.098Z,101263.44
2024-04-30T21:28:39.767Z,101261.34
2024-04-30T21:31:06.365Z,101255.50
2024-04-30T21:33:33.164Z,101264.44
2024-04-30T21:36:00.122Z,101260.75
2024-04-30T21:38:26.618Z,101249.75
2024-04-30T21:40:53.254Z,101255.41
2024-04-30T21:43:19.806Z,101255.19
2024-04-30T21:45:46.341Z,101261.22
2024-04-30T21:48:12.920Z,101263.31
2024-04-30T21:50:39.513Z,101255.41
2024-04-30T21:53:06.068Z,101256.63
2024-04-30T21:55:32.560Z,101245.63
2024-04-30T21:57:59.295Z,101241.91
2024-04-30T22:00:25.951Z,101247.75
2024-04-30T22:02:57.509Z,101247.41
2024-04-30T22:05:26.881Z,101268.50
2024-04-30T22:07:53.473Z,101282.34
2024-04-30T22:10:20.095Z,101286.94
2024-04-30T22:12:47.531Z,101283.59
2024-04-30T22:15:14.132Z,101279.00
2024-04-30T22:17:40.761Z,101286.53
2024-04-30T22:20:08.508Z,101275.81
2024-04-30T22:22:35.039Z,101266.13
2024-04-30T22:25:01.546Z,101268.97
2024-04-30T22:27:28.219Z,101266.50
2024-04-30T22:29:58.114Z,101250.22
2024-04-30T22:32:33.150Z,101246.25
2024-04-30T22:34:59.770Z,101233.19
2024-04-30T22:37:26.272Z,101230.25
2024-04-30T22:39:52.869Z,101219.25
2024-04-30T22:42:19.492Z,101225.19
2024-04-30T22:44:46.124Z,101210.81
2024-04-30T22:47:14.117Z,101199.75
2024-04-30T22:49:42.015Z,101205.78
2024-04-30T22:52:08.563Z,101219.38
2024-04-30T22:54:35.078Z,101211.81
2024-04-30T22:57:01.611Z,101203.78
2024-04-30T22:59:28.241Z,101213.53
2024-04-30T23:01:54.768Z,101202.69
2024-04-30T23:04:21.446Z,101208.34
2024-04-30T23:06:48.089Z,101208.09
2024-04-30T23:09:14.666Z,101203.44
2024-04-30T23:11:41.191Z,101213.19
2024-04-30T23:14:07.715Z,101210.22
2024-04-30T23:16:37.855Z,101219.09
2024-04-30T23:19:04.409Z,101213.78
2024-04-30T23:21:31.027Z,101225.16
2024-04-30T23:23:57.541Z,101213.41
2024-04-30T23:26:24.090Z,101220.06
2024-04-30T23:28:50.615Z,101210.56
2024-04-30T23:31:17.140Z,101203.22
2024-04-30T23:33:43.714Z,101212.47
2024-04-30T23:36:10.375Z,101209.19
2024-04-30T23:38:36.956Z,101206.97
2024-04-30T23:41:03.554Z,101196.59
2024-04-30T23:43:30.070Z,101200.06
2024-04-30T23:45:56.677Z,101193.66
2024-04-30T23:48:23.278Z,101186.25
2024-04-30T23:50:49.799Z,101173.31
2024-04-30T23:53:16.307Z,101177.63
2024-04-30T23:55:42.837Z,101173.06
2024-04-30T23:58:11.262Z,101167.50
